Time,TemperatureF,DewpointF,PressureIn,WindDirection,WindDirectionDegrees,WindSpeedMPH,WindSpeedGustMPH,Humidity,HourlyPrecipIn,Conditions,Clouds,dailyrainin,SoftwareType,DateUTC
2013-03-04 00:13:00,-999.0,-99.9,32.50,North,-999,-999.0,-999.0,-999,0.00,,,0.00,weatherlink.com 1.10,2013-03-04 07:13:00,
2013-03-04 00:28:00,-999.0,-99.9,32.50,North,-999,-999.0,-999.0,-999,0.00,,,0.00,weatherlink.com 1.10,2013-03-04 07:28:00,
2013-03-04 00:43:00,-999.0,-99.9,32.50,North,-999,-999.0,-999.0,-999,0.00,,,0.00,weatherlink.com 1.10,2013-03-04 07:43:00,
2013-03-04 00:58:00,-999.0,-99.9,32.50,North,-999,-999.0,-999.0,-999,0.00,,,0.00,weatherlink.com 1.10,2013-03-04 07:58:00,
2013-03-04 01:14:00,-999.0,-99.9,32.50,North,-999,-999.0,-999.0,-999,0.00,,,0.00,weatherlink.com 1.10,2013-03-04 08:14:00,
2013-03-04 01:29:00,-999.0,-99.9,32.50,North,-999,-999.0,-999.0,-999,0.00,,,0.00,weatherlink.com 1.10,2013-03-04 08:29:00,
2013-03-04 01:44:00,-999.0,-99.9,32.50,North,-999,-999.0,-999.0,-999,0.00,,,0.00,weatherlink.com 1.10,2013-03-04 08:44:00,
2013-03-04 01:59:00,-999.0,-99.9,32.50,North,-999,-999.0,-999.0,-999,0.00,,,0.00,weatherlink.com 1.10,2013-03-04 08:59:00,
2013-03-04 02:14:00,-999.0,-99.9,32.50,North,-999,-999.0,-999.0,-999,0.00,,,0.00,weatherlink.com 1.10,2013-03-04 09:14:00,
2013-03-04 02:29:00,-999.0,-99.9,32.50,North,-999,-999.0,-999.0,-999,0.00,,,0.00,weatherlink.com 1.10,2013-03-04 09:29:00,
2013-03-04 02:44:00,-999.0,-99.9,32.50,North,-999,-999.0,-999.0,-999,0.00,,,0.00,weatherlink.com 1.10,2013-03-04 09:44:00,
2013-03-04 02:59:00,-999.0,-99.9,32.50,North,-999,-999.0,-999.0,-999,0.00,,,0.00,weatherlink.com 1.10,2013-03-04 09:59:00,
2013-03-04 03:14:00,-999.0,-99.9,32.50,North,-999,-999.0,-999.0,-999,0.00,,,0.00,weatherlink.com 1.10,2013-03-04 10:14:00,
2013-03-04 03:29:00,-999.0,-99.9,32.50,North,-999,-999.0,-999.0,-999,0.00,,,0.00,weatherlink.com 1.10,2013-03-04 10:29:00,
2013-03-04 03:44:00,-999.0,-99.9,32.50,North,-999,-999.0,-999.0,-999,0.00,,,0.00,weatherlink.com 1.10,2013-03-04 10:44:00,
2013-03-04 03:59:00,-999.0,-99.9,32.50,North,-999,-999.0,-999.0,-999,0.00,,,0.00,weatherlink.com 1.10,2013-03-04 10:59:00,
2013-03-04 04:14:00,-999.0,-99.9,32.50,North,-999,-999.0,-999.0,-999,0.00,,,0.00,weatherlink.com 1.10,2013-03-04 11:14:00,
2013-03-04 04:29:00,-999.0,-99.9,32.50,North,-999,-999.0,-999.0,-999,0.00,,,0.00,weatherlink.com 1.10,2013-03-04 11:29:00,
2013-03-04 04:45:00,-999.0,-99.9,32.50,North,-999,-999.0,-999.0,-999,0.00,,,0.00,weatherlink.com 1.10,2013-03-04 11:45:00,
2013-03-04 05:00:00,-999.0,-99.9,32.50,North,-999,-999.0,-999.0,-999,0.00,,,0.00,weatherlink.com 1.10,2013-03-04 12:00:00,
2013-03-04 05:15:00,-999.0,-99.9,32.50,North,-999,-999.0,-999.0,-999,0.00,,,0.00,weatherlink.com 1.10,2013-03-04 12:15:00,
2013-03-04 05:30:00,14.7,12.0,32.50,NE,56,4.0,8.0,90,0.00,,,0.00,weatherlink.com 1.10,2013-03-04 12:30:00,
2013-03-04 05:45:00,14.9,13.0,32.50,NNE,27,3.0,9.0,90,0.00,,,0.00,weatherlink.com 1.10,2013-03-04 12:45:00,
2013-03-04 06:00:00,14.8,12.0,32.50,NE,40,5.0,9.0,90,0.00,,,0.00,weatherlink.com 1.10,2013-03-04 13:00:00,
2013-03-04 06:15:00,13.8,11.0,32.50,NNE,28,6.0,9.0,89,0.00,,,0.00,weatherlink.com 1.10,2013-03-04 13:15:00,
2013-03-04 06:30:00,13.4,11.0,32.50,ENE,59,5.0,10.0,89,0.00,,,0.00,weatherlink.com 1.10,2013-03-04 13:30:00,
2013-03-04 06:45:00,12.8,10.0,32.50,NNW,333,4.0,6.0,89,0.00,,,0.00,weatherlink.com 1.10,2013-03-04 13:45:00,
2013-03-04 07:00:00,12.6,10.0,32.50,ENE,67,5.0,5.0,89,0.00,,,0.00,weatherlink.com 1.10,2013-03-04 14:00:00,
2013-03-04 07:15:00,12.4,10.0,32.50,NNE,22,3.0,5.0,89,0.00,,,0.00,weatherlink.com 1.10,2013-03-04 14:15:00,
2013-03-04 07:30:00,12.8,10.0,32.50,NE,50,3.0,4.0,89,0.00,,,0.00,weatherlink.com 1.10,2013-03-04 14:30:00,
2013-03-04 07:45:00,13.5,11.0,32.50,North,349,2.0,5.0,89,0.00,,,0.00,weatherlink.com 1.10,2013-03-04 14:45:00,
2013-03-04 08:00:00,14.6,12.0,32.50,ENE,71,0.0,3.0,88,0.00,,,0.00,weatherlink.com 1.10,2013-03-04 15:00:00,
2013-03-04 08:15:00,15.0,12.0,32.50,NE,53,2.0,5.0,87,0.00,,,0.00,weatherlink.com 1.10,2013-03-04 15:15:00,
2013-03-04 08:30:00,15.1,11.0,32.50,East,80,6.0,7.0,85,0.00,,,0.00,weatherlink.com 1.10,2013-03-04 15:30:00,
2013-03-04 08:45:00,15.7,12.0,32.50,ENE,60,9.0,9.0,84,0.00,,,0.00,weatherlink.com 1.10,2013-03-04 15:45:00,
2013-03-04 09:00:00,16.5,12.0,32.50,ENE,74,4.0,9.0,82,0.00,,,0.00,weatherlink.com 1.10,2013-03-04 16:00:00,
2013-03-04 09:15:00,16.9,12.0,32.50,ESE,103,2.0,10.0,81,0.00,,,0.00,weatherlink.com 1.10,2013-03-04 16:15:00,
2013-03-04 09:30:00,17.3,12.0,32.50,SSW,206,4.0,8.0,81,0.00,,,0.00,weatherlink.com 1.10,2013-03-04 16:30:00,
2013-03-04 09:45:00,17.0,12.0,32.50,SSW,205,0.0,3.0,81,0.00,,,0.00,weatherlink.com 1.10,2013-03-04 16:45:00,
2013-03-04 10:01:00,17.7,12.0,32.50,East,96,2.0,10.0,77,0.00,,,0.00,weatherlink.com 1.10,2013-03-04 17:01:00,
2013-03-04 10:16:00,18.0,11.0,32.50,SE,125,0.0,10.0,75,0.00,,,0.00,weatherlink.com 1.10,2013-03-04 17:16:00,
2013-03-04 10:31:00,17.6,12.0,32.50,WSW,241,6.0,7.0,79,0.00,,,0.00,weatherlink.com 1.10,2013-03-04 17:31:00,
2013-03-04 10:46:00,18.1,12.0,32.50,SW,221,5.0,7.0,77,0.00,,,0.00,weatherlink.com 1.10,2013-03-04 17:46:00,
2013-03-04 11:01:00,18.1,11.0,32.50,South,184,4.0,9.0,75,0.00,,,0.00,weatherlink.com 1.10,2013-03-04 18:01:00,
2013-03-04 11:16:00,19.3,12.0,32.50,South,170,4.0,7.0,74,0.00,,,0.00,weatherlink.com 1.10,2013-03-04 18:16:00,
2013-03-04 11:31:00,19.1,10.0,32.50,South,180,5.0,10.0,69,0.00,,,0.00,weatherlink.com 1.10,2013-03-04 18:31:00,
2013-03-04 11:46:00,19.2,9.0,32.50,SSE,162,8.0,9.0,64,0.00,,,0.00,weatherlink.com 1.10,2013-03-04 18:46:00,
2013-03-04 12:01:00,20.0,10.0,32.50,South,181,4.0,10.0,66,0.00,,,0.00,weatherlink.com 1.10,2013-03-04 19:01:00,
2013-03-04 12:16:00,20.1,9.0,32.50,SSE,149,6.0,10.0,61,0.00,,,0.00,weatherlink.com 1.10,2013-03-04 19:16:00,
2013-03-04 12:31:00,19.7,9.0,32.50,SSW,206,6.0,9.0,64,0.00,,,0.00,weatherlink.com 1.10,2013-03-04 19:31:00,
2013-03-04 12:46:00,20.4,8.0,32.50,SW,236,6.0,11.0,60,0.00,,,0.00,weatherlink.com 1.10,2013-03-04 19:46:00,
2013-03-04 13:01:00,20.4,10.0,32.50,WNW,301,1.0,9.0,64,0.00,,,0.00,weatherlink.com 1.10,2013-03-04 20:01:00,
2013-03-04 13:16:00,20.9,9.0,32.50,WSW,248,4.0,16.0,60,0.00,,,0.00,weatherlink.com 1.10,2013-03-04 20:16:00,
2013-03-04 13:31:00,22.0,10.0,32.50,SSW,210,1.0,10.0,60,0.00,,,0.00,weatherlink.com 1.10,2013-03-04 20:31:00,
2013-03-04 13:46:00,23.3,12.0,32.50,SSE,153,0.0,12.0,62,0.00,,,0.00,weatherlink.com 1.10,2013-03-04 20:46:00,
2013-03-04 14:01:00,23.0,10.0,32.50,ESE,109,3.0,6.0,59,0.00,,,0.00,weatherlink.com 1.10,2013-03-04 21:01:00,
2013-03-04 14:16:00,23.8,11.0,32.50,South,171,4.0,8.0,58,0.00,,,0.00,weatherlink.com 1.10,2013-03-04 21:16:00,
2013-03-04 14:31:00,24.3,10.0,32.50,SW,232,3.0,6.0,55,0.00,,,0.00,weatherlink.com 1.10,2013-03-04 21:31:00,
2013-03-04 14:46:00,24.5,10.0,32.50,South,173,5.0,10.0,55,0.00,,,0.00,weatherlink.com 1.10,2013-03-04 21:46:00,
2013-03-04 15:01:00,24.0,9.0,32.50,SW,222,4.0,6.0,52,0.00,,,0.00,weatherlink.com 1.10,2013-03-04 22:01:00,
2013-03-04 15:16:00,24.7,12.0,32.50,North,5,1.0,7.0,60,0.01,,,0.01,weatherlink.com 1.10,2013-03-04 22:16:00,
2013-03-04 15:31:00,24.8,13.0,32.50,East,85,0.0,7.0,62,0.01,,,0.01,weatherlink.com 1.10,2013-03-04 22:31:00,
2013-03-04 15:46:00,25.2,10.0,32.50,South,188,8.0,9.0,53,0.01,,,0.01,weatherlink.com 1.10,2013-03-04 22:46:00,
2013-03-04 16:01:00,24.3,9.0,32.50,South,176,12.0,13.0,52,0.01,,,0.01,weatherlink.com 1.10,2013-03-04 23:01:00,
2013-03-04 16:16:00,24.1,8.0,32.50,SW,223,5.0,13.0,51,0.00,,,0.01,weatherlink.com 1.10,2013-03-04 23:16:00,
2013-03-04 16:31:00,24.2,9.0,32.50,South,190,4.0,14.0,53,0.00,,,0.01,weatherlink.com 1.10,2013-03-04 23:31:00,
2013-03-04 16:46:00,24.3,9.0,32.50,SW,227,7.0,12.0,53,0.00,,,0.01,weatherlink.com 1.10,2013-03-04 23:46:00,
2013-03-04 17:01:00,24.0,10.0,32.50,SW,225,12.0,14.0,56,0.00,,,0.01,weatherlink.com 1.10,2013-03-05 00:01:00,
2013-03-04 17:16:00,23.8,9.0,32.50,South,182,8.0,13.0,53,0.00,,,0.01,weatherlink.com 1.10,2013-03-05 00:16:00,
2013-03-04 17:31:00,23.7,10.0,32.50,South,182,8.0,12.0,56,0.00,,,0.01,weatherlink.com 1.10,2013-03-05 00:31:00,
2013-03-04 17:46:00,23.6,9.0,32.50,South,179,5.0,8.0,55,0.00,,,0.01,weatherlink.com 1.10,2013-03-05 00:46:00,
2013-03-04 18:01:00,23.1,9.0,32.50,SW,226,4.0,7.0,56,0.00,,,0.01,weatherlink.com 1.10,2013-03-05 01:01:00,
2013-03-04 18:16:00,22.6,9.0,32.50,SSW,207,1.0,4.0,57,0.00,,,0.01,weatherlink.com 1.10,2013-03-05 01:16:00,
2013-03-04 18:31:00,21.8,11.0,32.50,SSE,165,0.0,3.0,62,0.00,,,0.01,weatherlink.com 1.10,2013-03-05 01:31:00,
2013-03-04 18:46:00,21.3,10.0,32.50,SSE,164,2.0,4.0,62,0.00,,,0.01,weatherlink.com 1.10,2013-03-05 01:46:00,
2013-03-04 19:01:00,20.5,10.0,32.50,ESE,103,2.0,5.0,65,0.00,,,0.01,weatherlink.com 1.10,2013-03-05 02:01:00,
2013-03-04 19:16:00,20.7,9.0,32.50,SE,124,4.0,5.0,62,0.00,,,0.01,weatherlink.com 1.10,2013-03-05 02:16:00,
2013-03-04 19:31:00,22.3,9.0,32.50,SE,137,5.0,6.0,58,0.00,,,0.01,weatherlink.com 1.10,2013-03-05 02:31:00,
2013-03-04 19:46:00,22.2,9.0,32.50,ESE,116,7.0,8.0,58,0.00,,,0.01,weatherlink.com 1.10,2013-03-05 02:46:00,
2013-03-04 20:01:00,22.3,9.0,32.50,SE,139,6.0,7.0,58,0.00,,,0.01,weatherlink.com 1.10,2013-03-05 03:01:00,
2013-03-04 20:16:00,22.3,9.0,32.50,SE,136,5.0,8.0,58,0.00,,,0.01,weatherlink.com 1.10,2013-03-05 03:16:00,
2013-03-04 20:31:00,22.1,10.0,32.50,SE,146,6.0,8.0,59,0.00,,,0.01,weatherlink.com 1.10,2013-03-05 03:31:00,
2013-03-04 20:46:00,22.0,10.0,32.50,SE,140,7.0,9.0,60,0.00,,,0.01,weatherlink.com 1.10,2013-03-05 03:46:00,
2013-03-04 21:01:00,21.8,10.0,32.50,SE,124,5.0,11.0,61,0.00,,,0.01,weatherlink.com 1.10,2013-03-05 04:01:00,
2013-03-04 21:16:00,21.6,10.0,32.50,SE,133,7.0,11.0,62,0.00,,,0.01,weatherlink.com 1.10,2013-03-05 04:16:00,
2013-03-04 21:31:00,21.2,10.0,32.50,SE,140,9.0,10.0,63,0.00,,,0.01,weatherlink.com 1.10,2013-03-05 04:31:00,
2013-03-04 21:46:00,21.3,10.0,32.50,SSE,153,7.0,11.0,62,0.00,,,0.01,weatherlink.com 1.10,2013-03-05 04:46:00,
2013-03-04 22:01:00,21.3,10.0,32.50,SSE,156,8.0,12.0,62,0.00,,,0.01,weatherlink.com 1.10,2013-03-05 05:01:00,
2013-03-04 22:16:00,21.1,10.0,32.50,SE,135,9.0,12.0,63,0.00,,,0.01,weatherlink.com 1.10,2013-03-05 05:16:00,
2013-03-04 22:31:00,20.9,10.0,32.50,SE,144,10.0,13.0,63,0.00,,,0.01,weatherlink.com 1.10,2013-03-05 05:31:00,
2013-03-04 22:46:00,20.6,10.0,32.50,SSE,149,10.0,14.0,64,0.00,,,0.01,weatherlink.com 1.10,2013-03-05 05:46:00,
2013-03-04 23:01:00,20.4,10.0,32.50,SE,144,13.0,14.0,64,0.00,,,0.01,weatherlink.com 1.10,2013-03-05 06:01:00,
2013-03-04 23:16:00,19.9,10.0,32.50,SSE,149,13.0,14.0,65,0.00,,,0.01,weatherlink.com 1.10,2013-03-05 06:16:00,
2013-03-04 23:31:00,19.6,10.0,32.50,SSE,148,12.0,15.0,66,0.00,,,0.01,weatherlink.com 1.10,2013-03-05 06:31:00,
2013-03-04 23:46:00,19.3,10.0,32.50,SSE,148,14.0,14.0,67,0.00,,,0.01,weatherlink.com 1.10,2013-03-05 06:46:00,